Pagina principală
Imagini din satelit Prognoze pe 10 zileClimăVremea marină Cicloane Fulgere AeroporturiÎntrebări Buletin informativ Despre
Vremea : Europa Africa America de Nord America de Sud Asia Australia-Oceania Altele
Limbi Pagina de contact

București-Băneasa, România

Aeroportul Internațional București Băneasa - Aurel Vlaicu

Latitudine: 44-30N, longitudine: 026-08E, elevație: 90 m


METAR: LRBS 300600Z VRB01KT CAVOK 18/08 Q1016 NOSIG
TAF: LRBS 300500Z 3006/3106 VRB03KT CAVOK

Ora: 09:13 (06:13 UTC)

Observații meteo curente

Raportul a fost făcut în urmă cu 13 de minute, la 06:00 UTC
Vânt 1 kt din direcții variabile
Temperatură 18°C
Umiditate 52%
Presiune 1016 hPa
Vizibilitate de 10 km sau mai mult
nu există nori sub 1.500 m și nici cumulonimbus

Schimbare unități

Prognoză

Raportul a fost făcut în urmă cu 1 oră și 13 de minute, la 05:00 UTC
Prognoză valabilă de la 30 ora 06 UTC la 31 ora 06 UTC
Vânt 3 kt din direcții variabile
Vizibilitate de 10 km sau mai mult
nu există nori sub 1.500 m și nici cumulonimbus
Informațiile de pe acest site sunt prezentate sub rezerva declinării responsabilității
Vremea : Europa Africa America de Nord America de Sud Asia Australia-Oceania Altele
Imagini din satelit Prognoze pe 10 zileClimăVremea marină Cicloane Fulgere AeroporturiÎntrebări Limbi Pagina de contact Buletin informativ Despre